Time;durP1;ratioP1;P1;durP2;ratioP2;P2;SDS_P1;SDS_P2;PMS_P1;PMS_P2;Temp;Humidity;BMP_temperature;BMP_pressure;BME280_temperature;BME280_humidity;BME280_pressure;Samples;Min_cycle;Max_cycle;Signal;HPM_P1;HPM_P2
2021/06/02 00:02:00;;;;;;;26.02;13.00;;;230.60;2252.80;;;;;;4935397;29;20098;-75
2021/06/02 00:04:29;;;;;;;24.38;12.40;;;230.60;2252.80;;;;;;4935200;29;20038;-74
2021/06/02 00:06:58;;;;;;;16.20;11.73;;;230.60;2252.80;;;;;;4935178;29;20451;-75
2021/06/02 00:09:24;;;;;;;12.88;10.57;;;230.50;2252.80;;;;;;4935318;29;20028;-74
2021/06/02 00:11:51;;;;;;;18.02;11.63;;;230.50;2252.80;;;;;;4935213;29;20062;-77
2021/06/02 00:14:20;;;;;;;15.15;11.55;;;205.70;2252.80;;;;;;4935252;29;20027;-74
2021/06/02 00:16:46;;;;;;;14.15;11.32;;;205.70;2252.80;;;;;;4931164;29;20063;-74
2021/06/02 00:19:11;;;;;;;13.90;11.30;;;205.70;2252.80;;;;;;4934938;29;20454;-74
2021/06/02 00:21:37;;;;;;;15.07;12.35;;;205.60;2252.80;;;;;;4944224;29;20454;-74
2021/06/02 00:24:04;;;;;;;16.67;13.35;;;205.50;2252.80;;;;;;4935156;29;20116;-73
2021/06/02 00:26:34;;;;;;;15.70;12.35;;;205.50;2252.80;;;;;;4934919;29;20389;-75
2021/06/02 00:29:04;;;;;;;17.83;13.48;;;205.50;2252.80;;;;;;4935321;29;20023;-75
2021/06/02 00:31:32;;;;;;;18.60;13.27;;;205.50;2252.80;;;;;;4934892;29;20119;-75
2021/06/02 00:34:00;;;;;;;18.98;14.23;;;205.50;2252.80;;;;;;4935115;29;20024;-75
2021/06/02 00:36:27;;;;;;;18.95;13.10;;;205.50;2252.80;;;;;;4935191;29;20111;-75
2021/06/02 00:38:53;;;;;;;15.48;12.60;;;205.40;2252.80;;;;;;4934859;29;20028;-74
2021/06/02 00:41:19;;;;;;;18.00;13.40;;;205.40;2252.80;;;;;;4934818;28;20027;-75
2021/06/02 00:43:47;;;;;;;16.40;12.82;;;205.40;2252.80;;;;;;4934724;29;20490;-74
2021/06/02 00:46:14;;;;;;;15.05;11.85;;;205.40;2252.80;;;;;;4935165;29;20098;-74
2021/06/02 00:48:43;;;;;;;15.63;12.70;;;205.40;2252.80;;;;;;4934664;29;20027;-74
2021/06/02 00:51:10;;;;;;;17.35;12.02;;;205.40;2252.80;;;;;;4934995;28;20419;-74
2021/06/02 00:53:36;;;;;;;26.10;15.82;;;205.40;2252.80;;;;;;4933566;29;20793;-75
2021/06/02 00:56:07;;;;;;;29.35;16.92;;;205.40;2252.80;;;;;;4934452;29;20028;-75
2021/06/02 00:58:56;;;;;;;27.52;15.40;;;205.30;2252.80;;;;;;4934725;29;20024;-75
2021/06/02 01:01:21;;;;;;;24.98;14.30;;;205.30;2252.80;;;;;;4934549;29;20501;-74
2021/06/02 01:03:49;;;;;;;22.45;14.18;;;205.30;2252.80;;;;;;4934674;29;20475;-75
2021/06/02 01:06:17;;;;;;;19.73;12.02;;;205.20;2252.80;;;;;;4934445;29;20386;-75
2021/06/02 01:08:44;;;;;;;16.13;11.50;;;205.20;2252.80;;;;;;4934558;29;20028;-74
2021/06/02 01:11:10;;;;;;;14.88;10.57;;;205.20;2252.80;;;;;;4934436;29;20027;-74
2021/06/02 01:13:41;;;;;;;14.27;9.30;;;205.20;2252.80;;;;;;4934880;28;20028;-74
2021/06/02 01:16:07;;;;;;;;;;;205.20;2252.80;;;;;;4934719;29;20035;-75
2021/06/02 01:18:35;;;;;;;12.02;9.00;;;205.20;2252.80;;;;;;4934309;29;19911;-75
2021/06/02 01:21:01;;;;;;;16.00;11.05;;;205.10;2252.80;;;;;;4934577;29;20035;-75
2021/06/02 01:23:28;;;;;;;13.65;9.48;;;204.90;2252.80;;;;;;4934201;29;20012;-75
2021/06/02 01:25:54;;;;;;;17.50;12.07;;;204.90;2252.80;;;;;;4934323;29;20027;-75
2021/06/02 01:28:20;;;;;;;13.05;9.75;;;204.80;2252.80;;;;;;4934177;29;20027;-74
2021/06/02 01:30:46;;;;;;;12.73;9.85;;;204.90;2252.80;;;;;;4934112;29;20544;-74
2021/06/02 01:33:24;;;;;;;15.18;11.07;;;204.90;2252.80;;;;;;4934219;28;20132;-74
2021/06/02 01:35:58;;;;;;;11.38;9.15;;;204.80;2252.80;;;;;;4934446;28;20089;-74
2021/06/02 01:38:45;;;;;;;98.88;11.95;;;204.90;2252.80;;;;;;4934201;29;20448;-74
2021/06/02 01:41:19;;;;;;;12.65;9.88;;;180.10;2252.80;;;;;;4934395;28;20034;-75
2021/06/02 01:44:23;;;;;;;16.67;11.20;;;180.00;2252.80;;;;;;4933915;29;20091;-75
2021/06/02 01:47:01;;;;;;;32.17;11.27;;;180.10;2252.80;;;;;;4932792;29;20067;-74
2021/06/02 01:49:52;;;;;;;101.38;14.30;;;180.10;2252.80;;;;;;4933990;29;20031;-75
2021/06/02 01:52:36;;;;;;;16.55;10.95;;;180.00;2252.80;;;;;;4933679;29;20512;-75
2021/06/02 01:55:29;;;;;;;15.90;10.73;;;179.90;2252.80;;;;;;4933861;29;20467;-74
2021/06/02 01:58:13;;;;;;;18.98;11.82;;;179.80;2252.80;;;;;;4933563;29;20027;-75
2021/06/02 02:01:16;;;;;;;47.03;16.08;;;179.90;2252.80;;;;;;4933822;29;20474;-74
2021/06/02 02:04:09;;;;;;;30.08;14.27;;;180.00;2252.80;;;;;;4944792;29;20027;-79
2021/06/02 02:07:06;;;;;;;38.35;15.68;;;180.10;2252.80;;;;;;4932499;29;20020;-79
2021/06/02 02:10:01;;;;;;;41.95;16.42;;;180.10;2252.80;;;;;;4952617;28;20032;-78
2021/06/02 02:12:44;;;;;;;57.63;17.35;;;180.10;2252.80;;;;;;4952650;28;20149;-75
2021/06/02 02:15:28;;;;;;;35.47;15.73;;;204.80;2252.80;;;;;;4952760;28;20121;-77
2021/06/02 02:18:22;;;;;;;33.63;15.82;;;204.90;2252.80;;;;;;4929649;29;20035;-74
2021/06/02 02:21:02;;;;;;;40.28;16.27;;;205.00;2252.80;;;;;;4952174;28;20063;-79
2021/06/02 02:23:47;;;;;;;40.47;16.48;;;205.10;2252.80;;;;;;4953269;28;20428;-78
2021/06/02 02:26:40;;;;;;;43.55;17.02;;;205.10;2252.80;;;;;;4952619;28;20030;-79
2021/06/02 02:29:34;;;;;;;47.92;17.13;;;205.20;2252.80;;;;;;4952302;28;20077;-78
2021/06/02 02:32:29;;;;;;;52.00;17.67;;;205.20;2252.80;;;;;;4952487;28;20024;-74
2021/06/02 02:35:20;;;;;;;64.65;18.10;;;205.20;2252.80;;;;;;4929254;29;20153;-74
2021/06/02 02:38:07;;;;;;;73.20;18.00;;;205.20;2252.80;;;;;;4952087;28;20256;-78
2021/06/02 02:40:52;;;;;;;79.40;19.23;;;205.20;2252.80;;;;;;4952352;28;20051;-80
2021/06/02 02:43:31;;;;;;;35.10;16.80;;;205.20;2252.80;;;;;;4926094;29;20089;-77
2021/06/02 02:46:28;;;;;;;77.93;22.70;;;205.20;2252.80;;;;;;4952388;28;20039;-77
2021/06/02 02:48:58;;;;;;;304.13;77.57;;;205.10;2252.80;;;;;;4952190;28;20031;-75
2021/06/02 02:51:43;;;;;;;92.30;30.77;;;205.10;2252.80;;;;;;4952359;28;20173;-74
2021/06/02 02:54:36;;;;;;;35.60;20.58;;;204.90;2252.80;;;;;;4952127;28;20073;-74
2021/06/02 02:57:17;;;;;;;31.50;15.95;;;204.90;2252.80;;;;;;4928229;29;20027;-74
2021/06/02 03:00:01;;;;;;;;;;;205.10;2252.80;;;;;;4952240;28;20027;-75
2021/06/02 03:02:40;;;;;;;39.08;16.42;;;205.20;2252.80;;;;;;4952023;28;20385;-73
2021/06/02 03:05:11;;;;;;;37.35;15.75;;;205.20;2252.80;;;;;;4951866;28;20015;-74
2021/06/02 03:07:40;;;;;;;33.13;15.10;;;205.20;2252.80;;;;;;4951856;28;20371;-74
2021/06/02 03:10:13;;;;;;;29.45;15.10;;;205.20;2252.80;;;;;;4951699;28;20382;-74
2021/06/02 03:12:57;;;;;;;24.05;14.00;;;205.30;2252.80;;;;;;4951812;28;20015;-74
2021/06/02 03:15:39;;;;;;;32.60;14.30;;;205.40;2252.80;;;;;;4951736;28;20046;-74
2021/06/02 03:18:05;;;;;;;34.10;14.13;;;205.40;2252.80;;;;;;4951008;28;20070;-74
2021/06/02 03:20:40;;;;;;;40.58;13.85;;;205.50;2252.80;;;;;;4951374;28;20067;-74
2021/06/02 03:24:03;;;;;;;22.23;13.43;;;205.50;2252.80;;;;;;4951501;28;20027;-73
2021/06/02 03:26:40;;;;;;;35.08;13.82;;;205.70;2252.80;;;;;;4971286;28;20026;-74
2021/06/02 03:29:14;;;;;;;33.28;12.90;;;205.70;2252.80;;;;;;4971545;28;20090;-74
2021/06/02 03:31:48;;;;;;;55.53;12.73;;;205.70;2252.80;;;;;;4948211;28;20068;-80
2021/06/02 03:34:23;;;;;;;71.40;13.20;;;205.70;2252.80;;;;;;4932486;29;20020;-74
2021/06/02 03:37:04;;;;;;;52.58;11.65;;;205.70;2252.80;;;;;;4932333;29;20024;-74
2021/06/02 03:39:55;;;;;;;35.33;11.88;;;205.70;2252.80;;;;;;4923544;29;20058;-73
2021/06/02 03:42:20;;;;;;;49.42;10.88;;;230.40;2252.80;;;;;;4932235;29;20016;-73
2021/06/02 03:45:23;;;;;;;31.10;11.07;;;230.40;2252.80;;;;;;4932327;29;20390;-73
2021/06/02 03:48:16;;;;;;;35.90;11.00;;;230.40;2252.80;;;;;;4932232;29;20062;-74
2021/06/02 03:50:56;;;;;;;26.08;11.10;;;230.40;2252.80;;;;;;4932046;29;20047;-74
2021/06/02 03:53:37;;;;;;;20.90;10.48;;;230.50;2252.80;;;;;;4932168;29;20486;-74
2021/06/02 03:56:22;;;;;;;14.48;9.93;;;230.60;2252.80;;;;;;4932005;29;20121;-73
2021/06/02 03:59:16;;;;;;;25.77;9.32;;;230.60;2252.80;;;;;;4932039;29;20094;-74
2021/06/02 04:01:48;;;;;;;16.08;9.88;;;230.60;2252.80;;;;;;4924127;29;20046;-74
2021/06/02 04:04:45;;;;;;;26.00;10.05;;;230.60;2252.80;;;;;;4931845;29;20355;-74
2021/06/02 04:07:41;;;;;;;23.27;10.65;;;230.70;2252.80;;;;;;4926871;29;20034;-77
2021/06/02 04:10:11;;;;;;;16.67;9.40;;;230.70;2252.80;;;;;;4925036;29;20024;-77
2021/06/02 04:13:05;;;;;;;34.97;11.05;;;230.80;2252.80;;;;;;4951012;28;20057;-76
2021/06/02 04:15:37;;;;;;;40.47;13.88;;;230.50;2252.80;;;;;;4952256;28;20040;-74
2021/06/02 04:18:03;;;;;;;33.22;12.98;;;230.50;2252.80;;;;;;4950979;28;20046;-73
2021/06/02 04:20:29;;;;;;;28.75;11.90;;;230.40;2252.80;;;;;;4950709;28;20054;-78
2021/06/02 04:22:57;;;;;;;19.77;11.68;;;205.70;2252.80;;;;;;4951095;28;20032;-78
2021/06/02 04:25:23;;;;;;;17.13;11.00;;;230.40;2252.80;;;;;;4950842;28;20026;-73
2021/06/02 04:27:49;;;;;;;26.33;12.05;;;230.50;2252.80;;;;;;4951516;28;20031;-73
2021/06/02 04:30:17;;;;;;;17.45;11.80;;;230.60;2252.80;;;;;;4953088;28;20054;-73
2021/06/02 04:32:44;;;;;;;18.98;12.05;;;230.60;2252.80;;;;;;4927669;29;20559;-74
2021/06/02 04:35:18;;;;;;;22.90;11.65;;;230.80;2252.80;;;;;;4954174;28;20027;-73
2021/06/02 04:37:45;;;;;;;16.73;10.93;;;231.00;2252.80;;;;;;4954021;28;20023;-74
2021/06/02 04:40:12;;;;;;;16.80;11.02;;;231.20;2252.80;;;;;;4954034;28;20027;-75
2021/06/02 04:42:40;;;;;;;18.50;11.90;;;231.30;2252.80;;;;;;4953886;28;20032;-75
2021/06/02 04:45:08;;;;;;;14.98;11.00;;;256.00;2252.80;;;;;;4954105;28;20063;-75
2021/06/02 04:47:35;;;;;;;14.20;10.38;;;256.30;2252.80;;;;;;4953830;28;20038;-75
2021/06/02 04:50:13;;;;;;;18.20;11.18;;;256.60;2252.80;;;;;;4953926;28;20549;-76
2021/06/02 04:53:15;;;;;;;15.18;10.13;;;281.60;2278.40;;;;;;4953770;28;20042;-76
2021/06/02 04:56:35;;;;;;;14.95;9.80;;;282.00;2278.40;;;;;;4953854;28;20023;-75
2021/06/02 04:59:18;;;;;;;26.17;10.07;;;282.30;2278.40;;;;;;4966940;28;20035;-74
2021/06/02 05:02:05;;;;;;;30.65;12.15;;;282.50;2278.40;;;;;;4934448;28;20035;-75
2021/06/02 05:05:22;;;;;;;30.73;11.43;;;282.40;2278.40;;;;;;4937909;28;20042;-75
2021/06/02 05:08:12;;;;;;;18.50;8.13;;;307.20;2304.00;;;;;;4945052;28;20446;-75
2021/06/02 05:10:57;;;;;;;11.48;7.80;;;307.30;2304.00;;;;;;4947096;29;20081;-74
2021/06/02 05:14:06;;;;;;;11.95;8.00;;;307.40;2304.00;;;;;;4949795;28;20504;-74
2021/06/02 05:17:14;;;;;;;9.52;7.60;;;307.30;2304.00;;;;;;4950061;29;20043;-74
2021/06/02 05:20:16;;;;;;;9.15;7.32;;;307.80;2304.00;;;;;;4934133;29;20170;-75
2021/06/02 05:22:55;;;;;;;9.48;8.02;;;332.80;2329.60;;;;;;4933967;29;20026;-76
2021/06/02 05:26:00;;;;;;;10.02;7.55;;;333.20;2329.60;;;;;;4934106;29;20026;-76
2021/06/02 05:29:03;;;;;;;8.57;7.47;;;333.40;2329.60;;;;;;4934051;29;20036;-76
2021/06/02 05:31:37;;;;;;;11.75;8.73;;;333.70;2329.60;;;;;;4924664;29;20055;-75
2021/06/02 05:34:14;;;;;;;9.02;7.55;;;333.60;2329.60;;;;;;4932733;29;20074;-75
2021/06/02 05:37:25;;;;;;;10.43;8.13;;;333.60;2329.60;;;;;;4934100;29;20508;-76
2021/06/02 05:40:29;;;;;;;10.15;7.60;;;333.60;2329.60;;;;;;5000897;28;20048;-74
2021/06/02 05:43:00;;;;;;;11.40;9.43;;;333.70;2329.60;;;;;;5012082;28;20101;-73
2021/06/02 05:45:28;;;;;;;11.02;8.95;;;333.70;2329.60;;;;;;4953055;28;20043;-74
2021/06/02 05:48:39;;;;;;;11.43;8.95;;;358.40;2329.60;;;;;;4933757;29;20543;-74
2021/06/02 05:51:41;;;;;;;11.43;8.70;;;358.70;2329.60;;;;;;4963187;28;20109;-74
2021/06/02 05:54:43;;;;;;;11.20;8.50;;;359.00;2329.60;;;;;;4933632;29;20038;-75
2021/06/02 05:57:27;;;;;;;11.00;8.88;;;359.30;2329.60;;;;;;4933700;29;20028;-74
2021/06/02 06:00:17;;;;;;;10.20;8.63;;;384.50;2329.60;;;;;;4933536;29;20050;-73
2021/06/02 06:02:51;;;;;;;10.13;9.00;;;384.50;2329.60;;;;;;4946195;29;20031;-73
2021/06/02 06:05:19;;;;;;;12.55;8.50;;;384.30;2329.60;;;;;;4943443;29;20069;-77
2021/06/02 06:08:22;;;;;;;12.98;10.88;;;384.10;2329.60;;;;;;4938537;28;20493;-73
2021/06/02 06:11:16;;;;;;;10.57;8.38;;;384.20;2329.60;;;;;;4940925;29;20332;-74
2021/06/02 06:14:15;;;;;;;11.73;9.40;;;384.40;2329.60;;;;;;4935362;28;20107;-75
2021/06/02 06:16:56;;;;;;;11.52;9.05;;;384.10;2329.60;;;;;;4933243;29;20026;-74
2021/06/02 06:19:37;;;;;;;9.82;8.82;;;359.30;2329.60;;;;;;4933255;29;20564;-75
2021/06/02 06:22:36;;;;;;;11.98;9.45;;;384.20;2329.60;;;;;;4931916;29;20027;-74
2021/06/02 06:25:16;;;;;;;12.48;10.93;;;384.40;2329.60;;;;;;4933200;29;20111;-74
2021/06/02 06:27:55;;;;;;;12.27;10.38;;;384.60;2329.60;;;;;;4940826;29;20069;-73
2021/06/02 06:30:28;;;;;;;12.50;10.20;;;384.90;2329.60;;;;;;4950422;28;20118;-79
2021/06/02 06:32:56;;;;;;;12.85;10.23;;;409.70;2355.20;;;;;;4946666;28;20034;-75
2021/06/02 06:35:23;;;;;;;11.00;9.82;;;409.80;2355.20;;;;;;4951602;28;20113;-74
2021/06/02 06:37:54;;;;;;;12.70;10.27;;;410.00;2355.20;;;;;;4947865;29;20038;-75
2021/06/02 06:40:31;;;;;;;11.25;9.20;;;410.00;2355.20;;;;;;4951239;28;20034;-76
2021/06/02 06:43:01;;;;;;;11.85;10.30;;;410.20;2355.20;;;;;;4944752;29;20028;-76
2021/06/02 06:45:30;;;;;;;12.73;9.90;;;384.90;2329.60;;;;;;4944192;29;20023;-74
2021/06/02 06:47:57;;;;;;;11.25;9.32;;;409.70;2355.20;;;;;;4940517;28;20032;-73
2021/06/02 06:50:23;;;;;;;10.80;9.52;;;410.20;2355.20;;;;;;4944304;29;20161;-79
2021/06/02 06:52:55;;;;;;;10.95;9.73;;;410.40;2355.20;;;;;;4946380;28;20098;-75
2021/06/02 06:55:22;;;;;;;12.25;10.60;;;410.30;2355.20;;;;;;4942645;28;20043;-79
2021/06/02 06:57:49;;;;;;;13.15;11.18;;;410.10;2355.20;;;;;;4946527;28;20418;-75
2021/06/02 07:00:16;;;;;;;12.18;10.05;;;409.60;2355.20;;;;;;4949242;28;20134;-76
2021/06/02 07:02:44;;;;;;;16.10;13.73;;;410.00;2355.20;;;;;;4949144;28;20042;-79
2021/06/02 07:05:11;;;;;;;12.40;9.80;;;410.40;2355.20;;;;;;4950266;29;20023;-80
2021/06/02 07:07:41;;;;;;;12.35;9.73;;;435.40;2355.20;;;;;;4950739;28;20019;-77
2021/06/02 07:10:08;;;;;;;13.02;9.15;;;435.60;2355.20;;;;;;4950477;29;20031;-74
2021/06/02 07:12:38;;;;;;;12.00;9.50;;;435.90;2355.20;;;;;;4949605;28;20028;-73
2021/06/02 07:15:07;;;;;;;14.63;9.25;;;460.80;2380.80;;;;;;4950749;28;20023;-74
2021/06/02 07:17:45;;;;;;;12.73;9.85;;;461.20;2380.80;;;;;;4940090;29;20063;-73
2021/06/02 07:20:14;;;;;;;19.10;9.68;;;461.00;2380.80;;;;;;4948300;28;20054;-77
2021/06/02 07:22:50;;;;;;;15.98;9.68;;;461.20;2380.80;;;;;;4949440;29;20024;-74
2021/06/02 07:25:18;;;;;;;15.38;8.40;;;461.40;2380.80;;;;;;4948563;28;20039;-77
2021/06/02 07:27:45;;;;;;;14.10;9.38;;;461.70;2380.80;;;;;;4949836;29;20381;-72
2021/06/02 07:30:12;;;;;;;11.15;8.63;;;486.50;2380.80;;;;;;4949021;28;20024;-74
2021/06/02 07:32:38;;;;;;;18.45;10.90;;;486.70;2380.80;;;;;;4938973;28;20114;-76
2021/06/02 07:35:05;;;;;;;14.13;9.30;;;486.80;2380.80;;;;;;4941472;29;20016;-74
2021/06/02 07:37:32;;;;;;;11.23;7.68;;;487.00;2380.80;;;;;;4949236;28;20027;-74
2021/06/02 07:39:58;;;;;;;13.18;8.43;;;487.30;2380.80;;;;;;4950426;28;20023;-76
2021/06/02 07:42:24;;;;;;;14.93;8.63;;;487.30;2380.80;;;;;;4946724;28;20030;-75
2021/06/02 07:44:50;;;;;;;13.95;9.07;;;512.00;2380.80;;;;;;4932639;29;20028;-76
2021/06/02 07:47:16;;;;;;;11.02;7.85;;;512.20;2380.80;;;;;;4932167;29;20446;-77
2021/06/02 07:49:42;;;;;;;11.55;7.55;;;512.40;2380.80;;;;;;4921921;29;20098;-75
2021/06/02 07:52:07;;;;;;;11.98;7.32;;;512.60;2380.80;;;;;;4944432;29;20031;-74
2021/06/02 07:54:33;;;;;;;9.73;6.80;;;512.90;2380.80;;;;;;4950228;28;20019;-77
2021/06/02 07:56:59;;;;;;;9.43;6.50;;;512.90;2380.80;;;;;;4949454;28;20019;-76
2021/06/02 07:59:24;;;;;;;10.90;6.22;;;537.70;2406.40;;;;;;4948726;28;20042;-75
2021/06/02 08:01:50;;;;;;;12.57;5.88;;;537.80;2406.40;;;;;;4947887;29;20034;-76
2021/06/02 08:04:16;;;;;;;11.00;6.50;;;537.90;2406.40;;;;;;4951371;28;20028;-75
2021/06/02 08:06:42;;;;;;;9.50;6.35;;;537.80;2406.40;;;;;;4951505;28;20119;-76
2021/06/02 08:09:08;;;;;;;13.25;6.65;;;537.80;2406.40;;;;;;4951517;28;20047;-77
2021/06/02 08:11:34;;;;;;;9.52;6.30;;;538.00;2406.40;;;;;;4952891;28;20367;-76
2021/06/02 08:13:59;;;;;;;8.55;6.43;;;538.20;2406.40;;;;;;4949022;29;20038;-81
2021/06/02 08:16:25;;;;;;;11.35;6.50;;;538.10;2406.40;;;;;;4953546;28;20034;-75
2021/06/02 08:18:52;;;;;;;11.98;7.05;;;538.50;2406.40;;;;;;4948509;28;20502;-80
2021/06/02 08:21:18;;;;;;;12.75;7.00;;;563.30;2432.00;;;;;;4939667;29;20381;-76
2021/06/02 08:23:44;;;;;;;10.18;7.22;;;563.50;2432.00;;;;;;4950714;28;20027;-84
2021/06/02 08:26:10;;;;;;;12.02;7.20;;;563.60;2432.00;;;;;;4946431;28;20030;-77
2021/06/02 08:28:36;;;;;;;12.13;7.00;;;563.60;2432.00;;;;;;4934977;29;20020;-79
2021/06/02 08:31:02;;;;;;;13.13;6.90;;;563.70;2432.00;;;;;;4935067;29;20046;-78
2021/06/02 08:33:28;;;;;;;11.30;6.20;;;563.90;2432.00;;;;;;4933981;29;20038;-77
2021/06/02 08:35:54;;;;;;;20.48;7.00;;;564.00;2432.00;;;;;;4934517;29;20028;-79
2021/06/02 08:38:19;;;;;;;11.93;6.00;;;564.10;2432.00;;;;;;4941638;28;20102;-76
2021/06/02 08:40:45;;;;;;;12.35;8.23;;;564.10;2432.00;;;;;;4938113;28;20030;-75
2021/06/02 08:43:11;;;;;;;8.02;7.18;;;588.90;2432.00;;;;;;4934729;29;20031;-78
2021/06/02 08:45:38;;;;;;;7.65;6.47;;;588.80;2432.00;;;;;;4934720;29;20030;-78
2021/06/02 08:48:05;;;;;;;14.45;6.78;;;588.80;2432.00;;;;;;4934675;29;20112;-77
2021/06/02 08:50:31;;;;;;;9.32;6.28;;;589.10;2432.00;;;;;;4933533;29;20033;-77
2021/06/02 08:53:01;;;;;;;13.80;8.70;;;588.80;2432.00;;;;;;4934575;29;20106;-79
2021/06/02 08:55:27;;;;;;;;;;;589.10;2432.00;;;;;;4934970;28;20437;-76
2021/06/02 08:57:53;;;;;;;12.75;7.22;;;589.20;2432.00;;;;;;4934804;29;19915;-77
2021/06/02 09:00:22;;;;;;;9.05;5.97;;;589.40;2432.00;;;;;;4934631;29;20027;-76
2021/06/02 09:02:57;;;;;;;8.18;5.35;;;589.40;2432.00;;;;;;4934524;29;20110;-77
2021/06/02 09:05:25;;;;;;;7.20;5.03;;;589.40;2432.00;;;;;;4934211;29;20393;-76
2021/06/02 09:07:55;;;;;;;6.68;4.63;;;589.50;2432.00;;;;;;4933168;29;20415;-78
2021/06/02 09:10:22;;;;;;;6.50;4.90;;;589.60;2432.00;;;;;;4938423;28;20389;-76
2021/06/02 09:12:56;;;;;;;9.15;4.90;;;589.50;2432.00;;;;;;4949204;28;20032;-77
2021/06/02 09:15:22;;;;;;;8.32;5.68;;;589.30;2432.00;;;;;;4950089;28;20022;-77
2021/06/02 09:17:57;;;;;;;6.68;5.20;;;589.20;2432.00;;;;;;4953704;28;20112;-79
2021/06/02 09:20:36;;;;;;;7.97;5.40;;;589.10;2432.00;;;;;;4953266;28;20048;-78
2021/06/02 09:23:38;;;;;;;7.22;4.70;;;589.20;2432.00;;;;;;4953613;28;20023;-77
2021/06/02 09:26:10;;;;;;;5.95;4.68;;;589.30;2432.00;;;;;;4929447;29;20027;-78
2021/06/02 09:28:57;;;;;;;10.30;8.32;;;589.40;2432.00;;;;;;4953043;28;20034;-79
2021/06/02 09:31:26;;;;;;;8.02;5.97;;;589.40;2432.00;;;;;;4953487;28;20027;-78
2021/06/02 09:33:57;;;;;;;6.15;5.25;;;589.70;2432.00;;;;;;4953245;28;20023;-79
2021/06/02 09:36:27;;;;;;;9.23;5.13;;;614.40;2432.00;;;;;;4953356;28;20383;-76
2021/06/02 09:38:55;;;;;;;7.25;5.15;;;614.40;2432.00;;;;;;4951780;28;20027;-78
2021/06/02 09:41:21;;;;;;;7.68;5.20;;;614.40;2380.80;;;;;;4953228;28;20106;-77
2021/06/02 09:43:47;;;;;;;7.47;4.97;;;614.80;2380.80;;;;;;4953149;28;20120;-78
2021/06/02 09:46:15;;;;;;;6.68;5.00;;;615.30;2355.20;;;;;;4952917;28;20034;-78
2021/06/02 09:48:48;;;;;;;6.85;4.80;;;640.20;2329.60;;;;;;4953056;28;20032;-76
2021/06/02 09:51:33;;;;;;;6.55;4.80;;;640.70;2227.20;;;;;;4953012;28;20486;-78
2021/06/02 09:54:01;;;;;;;7.13;4.90;;;665.70;2304.00;;;;;;4951524;28;20082;-77
2021/06/02 09:56:41;;;;;;;6.43;5.15;;;665.80;2150.40;;;;;;4952870;28;20023;-78
2021/06/02 09:59:09;;;;;;;7.72;6.47;;;666.00;2099.20;;;;;;4952687;28;20085;-77
2021/06/02 10:01:51;;;;;;;6.93;4.47;;;666.00;2048.00;;;;;;4952560;28;20023;-75
2021/06/02 10:04:39;;;;;;;7.10;4.90;;;666.10;2022.40;;;;;;4952904;28;20030;-77
2021/06/02 10:07:18;;;;;;;6.05;4.05;;;666.30;1945.60;;;;;;4952834;28;20533;-80
2021/06/02 10:09:44;;;;;;;10.85;5.13;;;666.20;1945.60;;;;;;4951469;28;20031;-80
2021/06/02 10:12:11;;;;;;;4.95;3.58;;;691.20;1817.60;;;;;;4952603;28;20023;-77
2021/06/02 10:14:52;;;;;;;8.43;5.72;;;666.30;1792.00;;;;;;4952980;28;20434;-75
2021/06/02 10:17:27;;;;;;;8.95;6.00;;;640.90;1868.80;;;;;;4952477;28;20077;-75
2021/06/02 10:19:53;;;;;;;11.32;10.23;;;640.10;1945.60;;;;;;4952259;28;20448;-77
2021/06/02 10:22:28;;;;;;;6.20;5.20;;;615.20;2022.40;;;;;;4952661;28;20032;-77
2021/06/02 10:24:56;;;;;;;6.00;4.40;;;614.80;2022.40;;;;;;4952572;28;20482;-77
2021/06/02 10:27:23;;;;;;;5.40;4.13;;;614.60;2022.40;;;;;;4952116;28;20027;-78
2021/06/02 10:29:50;;;;;;;5.97;3.97;;;614.60;2048.00;;;;;;4952425;28;20027;-77
2021/06/02 10:32:16;;;;;;;6.38;3.47;;;614.60;2048.00;;;;;;4952254;28;20027;-78
2021/06/02 10:34:42;;;;;;;7.70;4.43;;;614.60;1971.20;;;;;;4952428;28;20054;-78
2021/06/02 10:37:12;;;;;;;8.38;3.92;;;614.90;2022.40;;;;;;4952318;28;20028;-77
2021/06/02 10:39:40;;;;;;;6.10;3.78;;;615.10;1945.60;;;;;;4952262;28;20019;-78
2021/06/02 10:42:39;;;;;;;9.02;3.70;;;615.20;1945.60;;;;;;4952257;28;20102;-79
2021/06/02 10:45:19;;;;;;;7.97;3.92;;;640.10;1945.60;;;;;;4932819;29;20457;-80
2021/06/02 10:48:02;;;;;;;6.75;4.45;;;640.10;1894.40;;;;;;4946175;28;20070;-79
2021/06/02 10:50:45;;;;;;;6.22;3.40;;;640.10;1920.00;;;;;;4949762;28;20056;-78
2021/06/02 10:53:21;;;;;;;6.07;3.38;;;615.30;1868.80;;;;;;4947843;29;20066;-78
2021/06/02 10:55:52;;;;;;;5.10;3.42;;;640.00;1894.40;;;;;;4950266;28;20110;-78
2021/06/02 10:58:31;;;;;;;5.20;3.45;;;640.10;1920.00;;;;;;4944830;29;20505;-77
2021/06/02 11:01:10;;;;;;;5.55;3.30;;;640.50;1868.80;;;;;;4932585;29;20042;-78
2021/06/02 11:03:38;;;;;;;5.32;3.50;;;640.50;1843.20;;;;;;4931407;29;20026;-75
2021/06/02 11:06:16;;;;;;;5.05;3.50;;;640.90;1843.20;;;;;;4932785;29;20043;-76
2021/06/02 11:08:50;;;;;;;6.22;3.58;;;640.90;1817.60;;;;;;4932603;29;20059;-77
2021/06/02 11:11:25;;;;;;;5.22;3.30;;;665.90;1843.20;;;;;;4942526;29;20042;-76
2021/06/02 11:17:16;;;;;;;6.82;3.67;;;666.30;1766.40;;;;;;4949885;28;20038;-73
2021/06/02 11:19:50;;;;;;;7.13;3.08;;;666.30;1715.20;;;;;;4932153;29;20101;-73
2021/06/02 11:22:19;;;;;;;7.25;3.55;;;666.20;1766.40;;;;;;4931654;29;20110;-73
2021/06/02 11:24:46;;;;;;;6.57;3.70;;;665.60;1792.00;;;;;;4931635;29;20099;-73
2021/06/02 11:27:12;;;;;;;6.03;3.15;;;640.60;1766.40;;;;;;4932011;29;20020;-74
2021/06/02 11:29:50;;;;;;;10.93;3.83;;;640.60;1766.40;;;;;;4932066;29;20035;-75
2021/06/02 11:32:23;;;;;;;7.25;3.35;;;640.50;1766.40;;;;;;4932194;29;20093;-74
2021/06/02 11:35:05;;;;;;;5.85;3.40;;;640.00;1766.40;;;;;;4932307;29;20023;-73
2021/06/02 11:37:33;;;;;;;5.72;3.40;;;615.20;1817.60;;;;;;4932931;29;20551;-71
2021/06/02 11:40:07;;;;;;;6.18;3.28;;;615.30;1817.60;;;;;;4936235;29;20031;-72
2021/06/02 11:42:41;;;;;;;5.60;3.10;;;640.20;1792.00;;;;;;4936189;29;20548;-70
2021/06/02 11:45:14;;;;;;;4.53;3.13;;;640.70;1715.20;;;;;;4936346;29;20106;-69
2021/06/02 11:48:01;;;;;;;8.07;3.35;;;666.00;1715.20;;;;;;4935674;29;20539;-71
2021/06/02 11:50:27;;;;;;;7.40;4.95;;;666.20;1792.00;;;;;;4936566;28;20024;-81
2021/06/02 11:52:56;;;;;;;5.18;4.10;;;665.60;1792.00;;;;;;4935364;29;20427;-83
2021/06/02 11:55:22;;;;;;;4.15;3.47;;;640.90;1740.80;;;;;;4934956;29;20072;-72
2021/06/02 11:57:52;;;;;;;5.90;5.30;;;640.50;1740.80;;;;;;4936306;28;20055;-74
2021/06/02 12:00:20;;;;;;;6.80;4.63;;;640.50;1715.20;;;;;;4936458;29;20016;-71
2021/06/02 12:02:57;;;;;;;6.53;4.28;;;640.60;1740.80;;;;;;4936418;29;20027;-71
2021/06/02 12:05:24;;;;;;;7.50;3.90;;;640.60;1740.80;;;;;;4936381;29;20335;-71
2021/06/02 12:07:55;;;;;;;5.57;3.60;;;665.60;1766.40;;;;;;4936219;29;20023;-72
2021/06/02 12:10:28;;;;;;;8.45;4.38;;;665.90;1766.40;;;;;;4940309;29;20027;-71
2021/06/02 12:12:54;;;;;;;9.95;4.30;;;691.20;1689.60;;;;;;4955601;28;20037;-72
2021/06/02 12:15:20;;;;;;;9.05;5.38;;;666.30;1664.00;;;;;;4955174;28;20027;-72
2021/06/02 12:17:49;;;;;;;9.25;5.40;;;666.10;1715.20;;;;;;4954189;28;20517;-71
2021/06/02 12:20:21;;;;;;;13.82;6.88;;;666.00;1715.20;;;;;;4954422;28;20051;-74
2021/06/02 12:22:48;;;;;;;8.80;4.13;;;665.80;1766.40;;;;;;4954537;28;20019;-74
2021/06/02 12:25:19;;;;;;;7.85;4.60;;;640.90;1664.00;;;;;;4954244;28;20102;-74
2021/06/02 12:27:46;;;;;;;5.30;3.47;;;640.90;1689.60;;;;;;4953910;28;20050;-75
2021/06/02 12:30:17;;;;;;;9.98;5.63;;;640.50;1715.20;;;;;;4954311;28;20035;-74
2021/06/02 12:32:47;;;;;;;10.85;6.57;;;640.50;1740.80;;;;;;4954191;28;20025;-74
2021/06/02 12:35:30;;;;;;;5.85;3.40;;;640.60;1792.00;;;;;;4954321;28;20023;-74
2021/06/02 12:38:07;;;;;;;4.63;3.20;;;640.90;1638.40;;;;;;4929034;29;20043;-73
2021/06/02 12:40:54;;;;;;;31.92;5.78;;;665.60;1689.60;;;;;;4940268;28;20024;-73
2021/06/02 12:43:25;;;;;;;17.13;3.80;;;640.90;1638.40;;;;;;4935326;28;20044;-72
2021/06/02 12:46:06;;;;;;;20.85;5.18;;;640.90;1561.60;;;;;;4934947;29;20099;-72
2021/06/02 12:48:33;;;;;;;14.73;3.72;;;640.70;1561.60;;;;;;4934931;29;20028;-72
2021/06/02 12:51:00;;;;;;;5.97;2.85;;;640.40;1536.00;;;;;;4934986;29;20024;-72
2021/06/02 12:53:39;;;;;;;6.38;3.10;;;615.30;1587.20;;;;;;4934695;29;20500;-71